Terminal Aerodrome Forecast
Issued by NWS

Home | Current Version | Previous Version | Text Only | Print | Product List | Glossary Off
Versions: 1 2 3 4 5 6 7 8 9 10 11 12 13 14 15 16 17 18

430
FTUS43 KFGF 010520
TAFBJI
TAF
KBJI 010520Z 0106/0206 34008KT P6SM OVC008
      TEMPO 0106/0110 5SM -SN OVC012
     FM011600 33008KT P6SM BKN010
     FM012300 32008KT P6SM BKN020=

USA.gov is the U.S. government's official web portal to all federal, state and local government web resources and services.